Time;durP1;ratioP1;P1;durP2;ratioP2;P2;SDS_P1;SDS_P2;PMS_P1;PMS_P2;Temp;Humidity;BMP_temperature;BMP_pressure;BME280_temperature;BME280_humidity;BME280_pressure;Samples;Min_cycle;Max_cycle;Signal;HPM_P1;HPM_P2
2024/03/21 00:00:20;;;;;;;13.68;9.68;;;12.00;99.90;;;;;;4886258;29;20694;-93
2024/03/21 00:02:47;;;;;;;11.80;8.90;;;12.00;99.90;;;;;;4886171;29;20203;-93
2024/03/21 00:05:16;;;;;;;10.18;8.30;;;12.00;99.90;;;;;;4886688;29;20239;-92
2024/03/21 00:07:46;;;;;;;12.45;9.35;;;12.00;99.90;;;;;;4903675;29;20176;-92
2024/03/21 00:10:21;;;;;;;13.15;9.10;;;12.00;99.90;;;;;;4887153;29;20234;-93
2024/03/21 00:12:50;;;;;;;13.52;9.68;;;12.10;99.90;;;;;;4887314;29;20231;-91
2024/03/21 00:15:17;;;;;;;12.70;8.90;;;12.00;99.90;;;;;;4887794;29;20183;-93
2024/03/21 00:18:03;;;;;;;13.32;8.68;;;12.00;99.90;;;;;;4887878;29;20187;-91
2024/03/21 00:20:29;;;;;;;11.77;8.90;;;11.90;99.90;;;;;;4904020;29;20242;-92
2024/03/21 00:22:55;;;;;;;10.48;8.25;;;11.90;99.90;;;;;;4887921;29;20619;-95
2024/03/21 00:25:21;;;;;;;11.93;9.05;;;11.90;99.90;;;;;;4886883;29;20546;-93
2024/03/21 00:27:50;;;;;;;11.00;8.93;;;11.90;99.90;;;;;;4887438;29;20274;-92
2024/03/21 00:32:51;;;;;;;11.60;8.25;;;11.80;99.90;;;;;;4917414;23;20253;-86
2024/03/21 00:35:17;;;;;;;14.18;9.00;;;11.70;99.90;;;;;;4826619;29;20197;-87
2024/03/21 00:37:42;;;;;;;12.57;8.95;;;11.70;99.90;;;;;;4826701;29;20178;-86
2024/03/21 00:40:09;;;;;;;15.10;9.15;;;11.70;99.90;;;;;;4827880;29;20197;-87
2024/03/21 00:42:42;;;;;;;13.10;9.15;;;11.70;99.90;;;;;;4827932;29;20693;-87
2024/03/21 00:45:09;;;;;;;14.65;9.88;;;11.60;99.90;;;;;;4827604;29;20205;-85
2024/03/21 00:47:34;;;;;;;13.00;9.63;;;11.60;99.90;;;;;;4827309;29;20186;-86
2024/03/21 00:50:00;;;;;;;11.85;8.82;;;11.60;99.90;;;;;;4826535;29;20186;-87
2024/03/21 00:52:27;;;;;;;13.57;9.80;;;11.60;99.90;;;;;;4826356;29;20182;-87
2024/03/21 00:54:53;;;;;;;14.65;9.95;;;11.60;99.90;;;;;;4826504;29;20175;-87
2024/03/21 00:57:19;;;;;;;12.88;9.05;;;11.60;99.90;;;;;;4827334;29;20505;-86
2024/03/21 00:59:47;;;;;;;10.88;8.75;;;11.60;99.90;;;;;;4826296;29;20189;-85
2024/03/21 01:02:15;;;;;;;13.20;9.13;;;11.70;99.90;;;;;;4822258;29;20613;-86
2024/03/21 01:04:44;;;;;;;11.90;8.63;;;11.70;99.90;;;;;;4829098;29;20566;-87
2024/03/21 01:07:34;;;;;;;11.30;8.20;;;11.70;99.90;;;;;;4845440;29;20177;-86
2024/03/21 01:10:00;;;;;;;12.90;8.77;;;11.70;99.90;;;;;;4829358;29;20234;-87
2024/03/21 01:12:27;;;;;;;11.27;8.48;;;11.70;99.90;;;;;;4829037;29;20193;-86
2024/03/21 01:14:52;;;;;;;9.98;8.63;;;11.70;99.90;;;;;;4845741;29;20170;-87
2024/03/21 01:17:18;;;;;;;11.68;8.52;;;11.60;99.90;;;;;;4828741;29;20195;-86
2024/03/21 01:19:44;;;;;;;9.07;8.02;;;11.60;99.90;;;;;;4829235;29;20181;-87
2024/03/21 01:22:10;;;;;;;14.65;8.98;;;11.70;99.90;;;;;;4829067;29;20536;-86
2024/03/21 01:24:35;;;;;;;13.70;9.18;;;11.70;99.90;;;;;;4829050;29;20217;-86
2024/03/21 01:27:01;;;;;;;13.38;9.30;;;11.60;99.90;;;;;;4828713;29;20704;-87
2024/03/21 01:29:27;;;;;;;12.95;9.23;;;11.60;99.90;;;;;;4828947;29;20185;-86
2024/03/21 01:31:53;;;;;;;15.55;9.38;;;11.70;99.90;;;;;;4828552;29;20577;-87
2024/03/21 01:34:20;;;;;;;12.90;9.45;;;11.60;99.90;;;;;;4828976;29;20189;-87
2024/03/21 01:36:47;;;;;;;9.00;7.60;;;11.60;99.90;;;;;;4828870;29;20196;-87
2024/03/21 01:39:14;;;;;;;12.13;8.82;;;11.60;99.90;;;;;;4845268;29;20306;-87
2024/03/21 01:41:41;;;;;;;10.82;8.30;;;11.60;99.90;;;;;;4828846;29;20197;-87
2024/03/21 01:44:16;;;;;;;10.45;8.57;;;11.60;99.90;;;;;;4828646;29;20239;-87
2024/03/21 01:46:43;;;;;;;11.52;9.00;;;11.70;99.90;;;;;;4828412;29;20173;-87
2024/03/21 01:49:13;;;;;;;12.68;9.15;;;11.60;99.90;;;;;;4828859;29;20188;-87
2024/03/21 01:51:41;;;;;;;13.52;9.23;;;11.50;99.90;;;;;;4828596;29;20174;-86
2024/03/21 01:54:10;;;;;;;12.70;10.20;;;11.50;99.90;;;;;;4828548;29;20189;-86
2024/03/21 01:56:37;;;;;;;15.02;10.00;;;11.50;99.90;;;;;;4828570;29;20188;-87
2024/03/21 01:59:04;;;;;;;13.40;9.27;;;11.50;99.90;;;;;;4828639;29;20201;-87
2024/03/21 02:01:36;;;;;;;14.20;9.95;;;11.50;99.90;;;;;;4828303;29;20193;-87
2024/03/21 02:04:05;;;;;;;13.65;9.63;;;11.50;99.90;;;;;;4844464;29;20197;-87
2024/03/21 02:06:35;;;;;;;14.15;10.40;;;11.50;99.90;;;;;;4828274;29;20185;-87
2024/03/21 02:09:03;;;;;;;12.75;9.80;;;11.60;99.90;;;;;;4828489;29;20499;-87
2024/03/21 02:11:29;;;;;;;14.23;10.18;;;11.50;99.90;;;;;;4828306;29;20704;-87
2024/03/21 02:13:56;;;;;;;21.08;10.77;;;11.40;99.90;;;;;;4843885;29;20189;-86
2024/03/21 02:16:22;;;;;;;17.48;11.90;;;11.40;99.90;;;;;;4828093;29;20174;-87
2024/03/21 02:18:49;;;;;;;15.50;12.65;;;11.30;99.90;;;;;;4828274;29;20217;-87
2024/03/21 02:24:00;;;;;;;17.65;12.90;;;11.20;99.90;;;;;;4844654;29;20224;-87
2024/03/21 02:26:26;;;;;;;17.30;11.75;;;11.20;99.90;;;;;;4844467;29;20253;-86
2024/03/21 02:28:52;;;;;;;13.82;11.65;;;11.20;99.90;;;;;;4828337;29;20187;-86
2024/03/21 02:31:19;;;;;;;16.55;13.10;;;11.20;99.90;;;;;;4844036;29;20228;-86
2024/03/21 02:33:45;;;;;;;15.77;12.43;;;11.10;99.90;;;;;;4844373;29;20636;-87
2024/03/21 02:36:11;;;;;;;15.55;11.35;;;11.10;99.90;;;;;;4827991;29;20201;-86
2024/03/21 02:38:40;;;;;;;17.35;11.95;;;11.10;99.90;;;;;;4827968;29;20212;-87
2024/03/21 02:41:07;;;;;;;16.15;13.15;;;11.10;99.90;;;;;;4827880;29;20181;-86
2024/03/21 02:43:32;;;;;;;17.50;12.48;;;11.10;99.90;;;;;;4828013;29;20209;-87
2024/03/21 02:45:58;;;;;;;22.27;12.70;;;11.20;99.90;;;;;;4844279;29;20740;-87
2024/03/21 02:48:24;;;;;;;13.82;11.95;;;11.30;99.90;;;;;;4843653;29;20177;-86
2024/03/21 02:50:50;;;;;;;18.65;12.98;;;11.30;99.90;;;;;;4827730;29;20185;-86
2024/03/21 02:53:17;;;;;;;16.73;12.32;;;11.30;99.90;;;;;;4827764;29;20192;-86
2024/03/21 02:55:42;;;;;;;19.27;13.05;;;11.20;99.90;;;;;;4827802;29;20185;-87
2024/03/21 02:58:08;;;;;;;17.00;12.18;;;11.20;99.90;;;;;;4827670;29;20185;-86
2024/03/21 03:00:34;;;;;;;15.25;12.52;;;11.30;99.90;;;;;;4844074;29;20188;-87
2024/03/21 03:03:00;;;;;;;18.27;13.45;;;11.30;99.90;;;;;;4827594;29;20246;-87
2024/03/21 03:05:26;;;;;;;20.17;12.13;;;11.30;99.90;;;;;;4826897;29;20217;-87
2024/03/21 03:07:52;;;;;;;18.83;12.15;;;11.30;99.90;;;;;;4827304;29;20605;-86
2024/03/21 03:10:21;;;;;;;19.70;12.77;;;11.30;99.90;;;;;;4827380;29;20208;-86
2024/03/21 03:12:49;;;;;;;18.95;12.52;;;11.30;99.90;;;;;;4827263;29;20186;-86
2024/03/21 03:15:14;;;;;;;17.58;12.38;;;11.20;99.90;;;;;;4826330;29;20226;-86
2024/03/21 03:17:40;;;;;;;17.77;12.70;;;11.10;99.90;;;;;;4843114;29;20181;-86
2024/03/21 03:20:06;;;;;;;18.35;12.02;;;11.10;99.90;;;;;;4827279;29;20185;-87
2024/03/21 03:22:32;;;;;;;18.75;12.55;;;11.00;99.90;;;;;;4827230;29;20185;-86
2024/03/21 03:25:00;;;;;;;17.48;12.48;;;10.90;99.90;;;;;;4827190;29;20672;-86
2024/03/21 03:27:25;;;;;;;19.40;12.75;;;10.90;99.90;;;;;;4827124;29;20505;-86
2024/03/21 03:29:51;;;;;;;17.58;12.85;;;10.90;99.90;;;;;;4827199;29;20765;-87
2024/03/21 03:32:18;;;;;;;19.40;13.05;;;10.90;99.90;;;;;;4826822;29;20225;-86
2024/03/21 03:37:28;;;;;;;17.45;13.55;;;10.80;99.90;;;;;;4843630;29;20176;-86
2024/03/21 03:39:53;;;;;;;14.52;12.52;;;10.90;99.90;;;;;;4826969;29;20585;-86
2024/03/21 03:42:20;;;;;;;18.10;12.10;;;10.90;99.90;;;;;;4839086;29;20192;-87
2024/03/21 03:44:46;;;;;;;17.75;13.07;;;10.80;99.90;;;;;;4834560;29;20217;-87
2024/03/21 03:47:12;;;;;;;15.90;12.55;;;10.90;99.90;;;;;;4841704;29;20177;-85
2024/03/21 03:49:37;;;;;;;20.02;13.50;;;10.90;99.90;;;;;;4842083;29;20185;-86
2024/03/21 03:52:03;;;;;;;19.27;12.80;;;10.90;99.90;;;;;;4843238;29;20185;-86
2024/03/21 03:54:31;;;;;;;19.20;12.52;;;10.90;99.90;;;;;;4826114;29;20193;-86
2024/03/21 03:56:57;;;;;;;15.00;11.50;;;11.00;99.90;;;;;;4843006;29;20177;-86
2024/03/21 03:59:22;;;;;;;16.80;12.27;;;11.00;99.90;;;;;;4826851;29;20192;-86
2024/03/21 04:01:48;;;;;;;16.25;12.15;;;11.10;99.90;;;;;;4826497;29;20272;-86
2024/03/21 04:04:15;;;;;;;18.02;13.00;;;11.20;99.90;;;;;;4843049;29;20309;-86
2024/03/21 04:06:40;;;;;;;16.92;12.05;;;11.10;99.90;;;;;;4843129;29;20182;-87
2024/03/21 04:09:07;;;;;;;16.80;13.13;;;11.10;99.90;;;;;;4826567;29;20200;-86
2024/03/21 04:11:32;;;;;;;17.45;11.55;;;11.10;99.90;;;;;;4826467;29;20621;-86
2024/03/21 04:13:59;;;;;;;17.58;13.00;;;11.10;99.90;;;;;;4842816;29;20215;-85
2024/03/21 04:16:25;;;;;;;20.02;13.57;;;11.00;99.90;;;;;;4826100;29;20188;-85
2024/03/21 04:18:52;;;;;;;20.08;13.60;;;10.80;99.90;;;;;;4826416;29;20686;-85
2024/03/21 04:21:17;;;;;;;20.20;13.98;;;10.80;99.90;;;;;;4842840;29;20204;-85
2024/03/21 04:23:43;;;;;;;18.95;14.07;;;10.70;99.90;;;;;;4842739;29;20648;-85
2024/03/21 04:26:09;;;;;;;18.20;13.20;;;10.80;99.90;;;;;;4843808;29;20177;-85
2024/03/21 04:28:35;;;;;;;17.08;13.05;;;10.80;99.90;;;;;;4829611;29;20246;-85
2024/03/21 04:31:01;;;;;;;19.42;13.27;;;10.90;99.90;;;;;;4845880;29;20616;-86
2024/03/21 04:33:27;;;;;;;20.05;14.02;;;11.00;99.90;;;;;;4829343;29;20185;-85
2024/03/21 04:35:53;;;;;;;18.25;12.75;;;11.00;99.90;;;;;;4829555;29;20249;-84
2024/03/21 04:38:19;;;;;;;18.30;12.77;;;11.00;99.90;;;;;;4829509;29;20213;-85
2024/03/21 04:40:46;;;;;;;19.17;12.10;;;11.00;99.90;;;;;;4829081;29;20704;-85
2024/03/21 04:43:11;;;;;;;16.75;13.02;;;11.00;99.90;;;;;;4829290;29;20189;-85
2024/03/21 04:45:39;;;;;;;19.27;13.73;;;10.90;99.90;;;;;;4845734;29;20625;-85
2024/03/21 04:48:05;;;;;;;16.55;12.30;;;11.00;99.90;;;;;;4828997;29;20181;-86
2024/03/21 04:50:31;;;;;;;16.55;13.05;;;11.00;99.90;;;;;;4829121;29;20185;-85
2024/03/21 04:52:56;;;;;;;19.25;12.55;;;10.90;99.90;;;;;;4829041;29;20204;-85
2024/03/21 04:55:23;;;;;;;19.00;12.45;;;10.90;99.90;;;;;;4829041;29;20523;-84
2024/03/21 04:57:49;;;;;;;20.02;12.75;;;10.90;99.90;;;;;;4829147;29;20182;-85
2024/03/21 05:00:14;;;;;;;21.50;12.90;;;10.80;99.90;;;;;;4829107;29;20253;-85
2024/03/21 05:02:40;;;;;;;15.85;11.88;;;10.80;99.90;;;;;;4828865;29;20625;-85
2024/03/21 05:05:06;;;;;;;17.98;12.07;;;10.80;99.90;;;;;;4829017;29;20221;-86
2024/03/21 05:07:33;;;;;;;18.83;12.80;;;10.80;99.90;;;;;;4829035;29;20188;-86
2024/03/21 05:09:59;;;;;;;20.58;13.80;;;10.80;99.90;;;;;;4845681;29;20177;-86
2024/03/21 05:12:25;;;;;;;17.27;14.07;;;10.80;99.90;;;;;;4845692;29;20261;-86
2024/03/21 05:14:53;;;;;;;23.02;16.10;;;10.80;99.90;;;;;;4829309;29;20220;-87
2024/03/21 05:17:20;;;;;;;22.35;15.82;;;10.70;99.90;;;;;;4828765;29;20637;-86
2024/03/21 05:19:46;;;;;;;21.20;16.00;;;10.80;99.90;;;;;;4845598;29;20177;-86
2024/03/21 05:22:12;;;;;;;23.02;15.65;;;10.70;99.90;;;;;;4829063;29;20209;-86
2024/03/21 05:24:44;;;;;;;22.40;17.20;;;10.80;99.90;;;;;;4845526;29;20244;-87
2024/03/21 05:27:14;;;;;;;25.63;18.73;;;10.80;99.90;;;;;;4845554;29;20210;-87
2024/03/21 05:29:41;;;;;;;27.63;18.38;;;10.80;99.90;;;;;;4829188;29;20326;-87
2024/03/21 05:32:07;;;;;;;27.27;19.25;;;10.70;99.90;;;;;;4844892;29;20277;-87
2024/03/21 05:34:34;;;;;;;29.67;19.90;;;10.70;99.90;;;;;;4828563;29;20664;-87
2024/03/21 05:37:00;;;;;;;27.02;19.75;;;10.70;99.90;;;;;;4828243;29;20349;-87
2024/03/21 05:39:26;;;;;;;27.73;20.60;;;10.70;99.90;;;;;;4843718;29;20220;-86
2024/03/21 05:41:52;;;;;;;25.75;20.50;;;10.80;99.90;;;;;;4828909;29;20184;-87
2024/03/21 05:44:18;;;;;;;25.17;19.98;;;10.80;99.90;;;;;;4828935;29;20214;-88
2024/03/21 05:46:43;;;;;;;28.75;21.88;;;10.80;99.90;;;;;;4828883;29;20275;-89
2024/03/21 05:49:10;;;;;;;27.85;20.40;;;10.80;99.90;;;;;;4847456;29;20309;-92
2024/03/21 05:51:36;;;;;;;25.15;19.33;;;10.80;99.90;;;;;;4847450;29;20624;-88
2024/03/21 05:54:06;;;;;;;27.55;19.65;;;10.80;99.90;;;;;;4847097;29;20216;-93
2024/03/21 05:56:35;;;;;;;27.80;19.73;;;10.90;99.90;;;;;;4846739;29;20635;-93
2024/03/21 05:59:01;;;;;;;26.48;19.95;;;10.90;99.90;;;;;;4847405;29;20191;-91
2024/03/21 06:01:33;;;;;;;29.08;20.40;;;10.90;99.90;;;;;;4847639;29;20501;-92
2024/03/21 06:04:02;;;;;;;26.00;19.88;;;11.00;99.90;;;;;;4847552;29;20647;-91
2024/03/21 06:06:28;;;;;;;23.38;18.77;;;10.90;99.90;;;;;;4847463;29;20195;-92
2024/03/21 06:08:55;;;;;;;24.60;18.58;;;10.90;99.90;;;;;;4858012;29;20260;-93
2024/03/21 06:11:21;;;;;;;27.92;21.55;;;10.80;99.90;;;;;;4828938;29;20185;-91
2024/03/21 06:13:49;;;;;;;31.25;22.40;;;10.80;99.90;;;;;;4829191;29;20187;-89
2024/03/21 06:16:14;;;;;;;31.58;22.20;;;10.80;99.90;;;;;;4828807;29;20221;-89
2024/03/21 06:18:40;;;;;;;29.25;22.63;;;10.80;99.90;;;;;;4829039;29;20834;-92
2024/03/21 06:21:06;;;;;;;35.22;24.67;;;10.80;99.90;;;;;;4829093;29;20181;-89
2024/03/21 06:23:31;;;;;;;31.88;23.90;;;10.70;99.90;;;;;;4828845;29;20254;-93
2024/03/21 06:25:58;;;;;;;35.17;24.52;;;10.70;99.90;;;;;;4828972;29;20227;-94
2024/03/21 06:28:24;;;;;;;34.45;25.73;;;10.60;99.90;;;;;;4829188;29;20181;-94
2024/03/21 06:30:49;;;;;;;34.95;24.67;;;10.70;99.90;;;;;;4836824;29;20185;-95
2024/03/21 06:33:15;;;;;;;32.85;24.65;;;10.60;99.90;;;;;;4843957;29;20185;-93
2024/03/21 06:35:43;;;;;;;36.72;25.15;;;10.70;99.90;;;;;;4844848;29;20184;-90
2024/03/21 06:38:08;;;;;;;37.70;25.80;;;10.70;99.90;;;;;;4828822;29;20208;-90
2024/03/21 06:40:34;;;;;;;33.28;25.52;;;10.70;99.90;;;;;;4828229;29;20633;-89
2024/03/21 06:43:00;;;;;;;38.83;25.30;;;10.70;99.90;;;;;;4844626;29;20206;-90
2024/03/21 06:45:26;;;;;;;35.13;26.25;;;10.70;99.90;;;;;;4828275;29;20227;-89
2024/03/21 06:47:52;;;;;;;32.33;25.10;;;10.70;99.90;;;;;;4828349;29;20189;-90
2024/03/21 06:50:19;;;;;;;33.08;24.40;;;10.60;99.90;;;;;;4827961;29;20181;-89
2024/03/21 06:52:49;;;;;;;33.83;24.60;;;10.60;99.90;;;;;;4828242;29;20185;-89
2024/03/21 06:55:17;;;;;;;31.80;24.33;;;10.60;99.90;;;;;;4828125;29;20238;-88
2024/03/21 06:57:46;;;;;;;33.90;24.75;;;10.70;99.90;;;;;;4828097;29;20185;-90
2024/03/21 07:00:13;;;;;;;34.00;24.13;;;10.60;99.90;;;;;;4828729;29;20196;-91
2024/03/21 07:02:39;;;;;;;31.95;24.83;;;10.60;99.90;;;;;;4827914;29;20536;-93
2024/03/21 07:05:07;;;;;;;34.78;25.10;;;10.70;99.90;;;;;;4828084;29;20274;-93
2024/03/21 07:08:01;;;;;;;31.73;24.13;;;10.70;99.90;;;;;;4828273;29;20191;-90
2024/03/21 07:10:27;;;;;;;30.05;22.50;;;10.70;99.90;;;;;;4828449;29;20248;-92
2024/03/21 07:12:52;;;;;;;32.63;23.05;;;10.70;99.90;;;;;;4846381;29;20596;-91
2024/03/21 07:15:20;;;;;;;30.33;23.17;;;10.70;99.90;;;;;;4861819;29;20185;-91
2024/03/21 07:17:46;;;;;;;30.33;24.08;;;10.70;99.90;;;;;;4846537;29;20172;-89
2024/03/21 07:20:12;;;;;;;29.35;23.33;;;10.70;99.90;;;;;;4846571;29;20191;-90
2024/03/21 07:22:38;;;;;;;32.58;25.05;;;10.80;99.90;;;;;;4862747;29;20247;-93
2024/03/21 07:25:07;;;;;;;34.50;24.17;;;10.80;99.90;;;;;;4846062;29;20252;-92
2024/03/21 07:27:33;;;;;;;32.10;24.88;;;10.80;99.90;;;;;;4846335;29;20224;-90
2024/03/21 07:29:59;;;;;;;31.80;24.13;;;10.90;99.90;;;;;;4845911;29;20615;-90
2024/03/21 07:32:25;;;;;;;35.45;26.33;;;10.90;99.90;;;;;;4862391;29;20663;-89
2024/03/21 07:34:55;;;;;;;34.55;26.50;;;10.90;99.90;;;;;;4846175;29;20184;-90
2024/03/21 07:37:21;;;;;;;41.38;26.60;;;10.90;99.90;;;;;;4846151;29;20216;-87
2024/03/21 07:39:47;;;;;;;36.80;26.10;;;10.90;99.90;;;;;;4833766;29;20224;-90
2024/03/21 07:42:13;;;;;;;33.65;26.20;;;10.80;99.90;;;;;;4828032;29;20189;-85
2024/03/21 07:44:39;;;;;;;41.28;27.80;;;10.90;99.90;;;;;;4843950;29;20221;-92
2024/03/21 07:47:04;;;;;;;36.65;27.73;;;10.90;99.90;;;;;;4827968;29;20188;-91
2024/03/21 07:49:30;;;;;;;38.58;28.77;;;10.80;99.90;;;;;;4827896;29;20276;-88
2024/03/21 07:52:00;;;;;;;42.10;29.48;;;10.90;99.90;;;;;;4827659;29;20269;-90
2024/03/21 07:54:29;;;;;;;46.22;31.05;;;10.90;99.90;;;;;;4827490;29;20219;-88
2024/03/21 07:57:00;;;;;;;43.25;30.98;;;10.90;99.90;;;;;;4827789;29;20276;-90
2024/03/21 07:59:25;;;;;;;42.60;28.45;;;10.90;99.90;;;;;;4827942;29;20181;-92
2024/03/21 08:01:51;;;;;;;39.00;27.58;;;10.90;99.90;;;;;;4829900;29;20562;-92
2024/03/21 08:04:17;;;;;;;41.85;29.90;;;10.90;99.90;;;;;;4847586;29;20216;-90
2024/03/21 08:06:45;;;;;;;42.47;31.42;;;11.00;99.90;;;;;;4830983;29;20186;-91
2024/03/21 08:09:11;;;;;;;43.75;31.55;;;11.00;99.90;;;;;;4831242;29;20280;-92
2024/03/21 08:11:36;;;;;;;39.13;27.75;;;11.00;99.90;;;;;;4833393;29;20260;-91
2024/03/21 08:14:02;;;;;;;39.92;29.80;;;11.00;99.90;;;;;;4849480;29;20209;-92
2024/03/21 08:16:31;;;;;;;40.10;29.27;;;11.00;99.90;;;;;;4849532;29;20573;-92
2024/03/21 08:18:57;;;;;;;38.67;27.85;;;11.10;99.90;;;;;;4849752;29;20261;-92
2024/03/21 08:21:24;;;;;;;37.85;26.83;;;11.20;99.90;;;;;;4842561;29;20272;-90
2024/03/21 08:23:50;;;;;;;39.50;25.92;;;11.20;99.90;;;;;;4848868;29;20219;-90
2024/03/21 08:26:18;;;;;;;42.47;26.70;;;11.30;99.90;;;;;;4849267;29;20191;-91
2024/03/21 08:28:44;;;;;;;34.33;23.52;;;11.40;99.90;;;;;;4849511;29;20181;-91
2024/03/21 08:31:09;;;;;;;32.13;23.45;;;11.40;99.90;;;;;;4854727;29;20236;-91
2024/03/21 08:33:35;;;;;;;35.35;22.05;;;11.40;99.90;;;;;;4830694;29;20508;-93
2024/03/21 08:36:03;;;;;;;25.75;19.08;;;11.40;99.90;;;;;;4830421;29;20209;-92
2024/03/21 08:38:31;;;;;;;19.88;14.10;;;11.40;99.90;;;;;;4831779;29;20235;-94
2024/03/21 08:40:57;;;;;;;19.08;12.50;;;11.40;99.90;;;;;;4830869;29;20632;-90
2024/03/21 08:43:23;;;;;;;14.85;11.65;;;11.40;99.90;;;;;;4830536;29;20214;-93
2024/03/21 08:45:49;;;;;;;14.32;11.48;;;11.50;99.90;;;;;;4830613;29;20201;-90
2024/03/21 08:48:16;;;;;;;17.02;10.68;;;11.50;99.90;;;;;;4821278;29;20170;-91
2024/03/21 08:50:45;;;;;;;13.82;10.50;;;11.60;99.90;;;;;;4819008;29;20646;-89
2024/03/21 08:53:13;;;;;;;13.13;9.15;;;11.60;99.90;;;;;;4837452;29;20189;-92
2024/03/21 08:55:41;;;;;;;11.65;8.75;;;11.70;99.90;;;;;;4830069;29;20198;-91
2024/03/21 08:58:07;;;;;;;11.02;8.68;;;11.70;99.90;;;;;;4846743;29;20510;-90
2024/03/21 09:00:33;;;;;;;9.13;7.60;;;11.70;99.90;;;;;;4846558;29;20182;-88
2024/03/21 09:03:01;;;;;;;9.30;7.15;;;11.70;99.90;;;;;;4830697;29;20339;-88
2024/03/21 09:05:30;;;;;;;8.50;6.80;;;11.80;99.90;;;;;;4811968;29;20631;-90
2024/03/21 09:07:56;;;;;;;8.18;6.30;;;11.80;99.90;;;;;;4812212;29;20228;-90
2024/03/21 09:10:22;;;;;;;8.43;6.57;;;11.80;99.90;;;;;;4828323;29;20262;-90
2024/03/21 09:12:48;;;;;;;8.65;6.85;;;11.80;99.90;;;;;;4828527;29;20182;-88
2024/03/21 09:15:16;;;;;;;9.30;7.35;;;11.80;99.90;;;;;;4829228;29;20185;-84
2024/03/21 09:17:41;;;;;;;8.60;7.57;;;11.40;99.90;;;;;;4815772;29;20181;-92
2024/03/21 09:20:08;;;;;;;9.77;8.07;;;11.10;99.90;;;;;;4829501;29;20181;-87
2024/03/21 09:22:35;;;;;;;9.55;8.35;;;10.90;99.90;;;;;;4829414;29;20724;-89
2024/03/21 09:25:01;;;;;;;10.18;8.38;;;10.70;99.90;;;;;;4829267;29;20217;-89
2024/03/21 09:27:27;;;;;;;10.50;8.55;;;10.70;99.90;;;;;;4845571;29;20189;-86
2024/03/21 09:29:53;;;;;;;11.90;8.57;;;10.70;99.90;;;;;;4845470;29;20177;-86
2024/03/21 09:32:19;;;;;;;9.40;7.10;;;10.80;99.90;;;;;;4828686;29;20240;-87
2024/03/21 09:34:52;;;;;;;8.65;7.00;;;10.90;99.90;;;;;;4845481;29;20225;-86
2024/03/21 09:37:23;;;;;;;9.20;7.18;;;11.00;99.90;;;;;;4829250;29;20272;-87
2024/03/21 09:39:52;;;;;;;11.55;7.47;;;11.20;99.90;;;;;;4829183;29;20193;-88
2024/03/21 09:42:19;;;;;;;7.95;6.57;;;11.30;99.90;;;;;;4829040;29;20217;-86
2024/03/21 09:44:49;;;;;;;7.70;6.15;;;11.30;99.90;;;;;;4843944;29;20561;-87
2024/03/21 09:47:20;;;;;;;6.07;5.20;;;11.40;99.90;;;;;;4844055;29;20584;-86
2024/03/21 09:49:49;;;;;;;7.32;5.20;;;11.50;99.90;;;;;;4844091;29;20182;-87
2024/03/21 09:52:15;;;;;;;6.65;5.05;;;11.40;99.90;;;;;;4843405;29;20205;-88
2024/03/21 09:54:41;;;;;;;5.03;4.45;;;11.30;99.90;;;;;;4843121;29;20185;-86
2024/03/21 09:57:12;;;;;;;7.22;5.65;;;11.30;99.90;;;;;;4844593;29;20185;-85
2024/03/21 09:59:39;;;;;;;7.22;5.70;;;11.30;99.90;;;;;;4828418;29;20182;-85
2024/03/21 10:02:14;;;;;;;7.43;5.57;;;11.10;99.90;;;;;;4828184;29;20192;-86
2024/03/21 10:04:46;;;;;;;6.85;5.90;;;11.00;99.90;;;;;;4833456;29;20273;-87
2024/03/21 10:07:19;;;;;;;8.63;6.50;;;10.90;99.90;;;;;;4816114;29;20185;-87
2024/03/21 10:09:55;;;;;;;9.63;6.90;;;10.80;99.90;;;;;;4839246;29;20232;-86
2024/03/21 10:12:22;;;;;;;8.88;7.63;;;10.70;99.90;;;;;;4832487;29;20181;-84
2024/03/21 10:14:53;;;;;;;9.43;6.95;;;10.60;99.90;;;;;;4824732;29;20634;-85
2024/03/21 10:17:18;;;;;;;11.30;7.95;;;10.50;99.90;;;;;;4828235;29;20268;-85
2024/03/21 10:19:45;;;;;;;10.73;8.23;;;10.40;99.90;;;;;;4838096;29;20724;-85
2024/03/21 10:22:17;;;;;;;9.73;7.82;;;10.30;99.90;;;;;;4846306;29;20237;-84
2024/03/21 10:24:43;;;;;;;8.02;6.68;;;10.20;99.90;;;;;;4829359;29;20201;-87
2024/03/21 10:27:14;;;;;;;9.77;6.90;;;10.00;99.90;;;;;;4837740;29;20208;-86
2024/03/21 10:29:41;;;;;;;10.05;7.07;;;9.90;99.90;;;;;;4826952;29;20204;-86
2024/03/21 10:32:18;;;;;;;7.25;5.13;;;9.90;99.90;;;;;;4825699;29;20321;-86
2024/03/21 10:34:52;;;;;;;8.95;6.22;;;9.80;99.90;;;;;;4823747;29;20219;-86
2024/03/21 10:37:22;;;;;;;8.23;5.38;;;9.60;99.90;;;;;;4828840;29;20188;-85
2024/03/21 10:39:50;;;;;;;9.63;5.13;;;9.50;99.90;;;;;;4829342;29;20177;-85
2024/03/21 10:42:27;;;;;;;8.38;4.68;;;9.40;99.90;;;;;;4845450;29;20249;-86
2024/03/21 10:45:02;;;;;;;8.18;5.20;;;9.40;99.90;;;;;;4861143;29;20215;-85
2024/03/21 10:47:29;;;;;;;7.47;4.63;;;9.40;99.90;;;;;;4845146;29;20608;-83
2024/03/21 10:49:55;;;;;;;8.98;5.30;;;9.30;99.90;;;;;;4854379;29;20232;-84
2024/03/21 10:52:21;;;;;;;10.33;4.93;;;9.30;99.90;;;;;;4862064;29;20247;-84
2024/03/21 10:54:52;;;;;;;8.23;5.13;;;9.30;99.90;;;;;;4831284;29;20189;-85
2024/03/21 10:57:23;;;;;;;7.97;4.77;;;9.30;99.90;;;;;;4839673;29;20181;-84
2024/03/21 11:00:13;;;;;;;7.03;4.88;;;9.30;99.90;;;;;;4842072;29;20192;-86
2024/03/21 11:02:44;;;;;;;5.90;4.00;;;9.40;99.90;;;;;;4824984;29;20197;-86
2024/03/21 11:05:11;;;;;;;6.07;4.20;;;9.50;99.90;;;;;;4847902;29;20221;-84
2024/03/21 11:07:38;;;;;;;8.87;4.30;;;9.60;99.90;;;;;;4842274;29;20237;-86
2024/03/21 11:10:06;;;;;;;8.73;4.20;;;9.60;99.90;;;;;;4842510;29;20201;-87
2024/03/21 11:12:34;;;;;;;5.40;3.80;;;9.70;99.90;;;;;;4842363;29;20180;-87
2024/03/21 11:14:59;;;;;;;6.93;4.65;;;9.80;99.90;;;;;;4845725;29;20652;-85
2024/03/21 11:17:25;;;;;;;6.80;4.47;;;9.90;99.90;;;;;;4825693;29;20265;-86
2024/03/21 11:19:52;;;;;;;7.00;4.25;;;10.00;99.90;;;;;;4823134;29;20204;-86
2024/03/21 11:22:18;;;;;;;5.55;3.90;;;10.00;99.90;;;;;;4840596;29;20193;-85
2024/03/21 11:24:43;;;;;;;6.40;3.90;;;10.00;99.90;;;;;;4827628;29;20217;-86
2024/03/21 11:27:30;;;;;;;7.22;4.45;;;9.90;99.90;;;;;;4841560;29;20200;-85
2024/03/21 11:29:55;;;;;;;5.63;4.13;;;9.80;99.90;;;;;;4828349;29;20201;-85
2024/03/21 11:32:23;;;;;;;5.43;4.28;;;9.80;99.90;;;;;;4842163;29;20251;-87
2024/03/21 11:34:50;;;;;;;8.38;4.78;;;9.80;99.90;;;;;;4844891;29;20766;-85
2024/03/21 11:37:18;;;;;;;6.70;4.77;;;9.70;99.90;;;;;;4825670;29;20200;-85
2024/03/21 11:39:45;;;;;;;7.03;4.88;;;9.70;99.90;;;;;;4845734;29;20273;-85
2024/03/21 11:42:15;;;;;;;8.00;5.65;;;9.60;99.90;;;;;;4846412;29;20243;-87
2024/03/21 11:44:42;;;;;;;8.80;5.88;;;9.60;99.90;;;;;;4847830;29;20290;-85
2024/03/21 11:47:13;;;;;;;9.20;6.28;;;9.60;99.90;;;;;;4847110;29;20192;-87
2024/03/21 11:49:57;;;;;;;8.32;5.53;;;9.50;99.90;;;;;;4844590;29;20225;-87
2024/03/21 11:52:24;;;;;;;9.73;6.38;;;9.50;99.90;;;;;;4845855;29;20196;-85
2024/03/21 11:54:51;;;;;;;9.32;6.45;;;9.50;99.90;;;;;;4836388;29;20254;-85
2024/03/21 11:57:17;;;;;;;8.07;5.88;;;9.50;99.90;;;;;;4832815;29;20185;-84
2024/03/21 11:59:43;;;;;;;7.72;6.03;;;9.40;99.90;;;;;;4847492;29;20193;-85
2024/03/21 12:02:12;;;;;;;9.02;6.10;;;9.40;99.90;;;;;;4830837;29;20253;-87
2024/03/21 12:04:38;;;;;;;13.73;6.57;;;9.40;99.90;;;;;;4833013;29;21316;-86
2024/03/21 12:07:05;;;;;;;10.38;6.90;;;9.40;99.90;;;;;;4841002;29;20184;-87
2024/03/21 12:09:30;;;;;;;10.82;6.47;;;9.50;99.90;;;;;;4830911;29;20586;-85
2024/03/21 12:11:56;;;;;;;10.68;6.55;;;9.50;99.90;;;;;;4828823;29;20220;-84
2024/03/21 12:14:22;;;;;;;8.40;5.55;;;9.50;99.90;;;;;;4848537;29;20267;-85
2024/03/21 12:16:47;;;;;;;12.48;6.45;;;9.40;99.90;;;;;;4835508;29;20197;-84
2024/03/21 12:19:14;;;;;;;10.50;6.13;;;9.40;99.90;;;;;;4827808;29;20197;-85
2024/03/21 12:21:40;;;;;;;11.60;6.03;;;9.40;99.90;;;;;;4845849;29;20205;-86
2024/03/21 12:24:06;;;;;;;11.07;5.53;;;9.40;99.90;;;;;;4850759;29;20221;-84
2024/03/21 12:26:31;;;;;;;9.93;5.95;;;9.40;99.90;;;;;;4843333;29;20280;-88
2024/03/21 12:29:00;;;;;;;10.05;5.85;;;9.50;99.90;;;;;;4844337;29;20527;-86
2024/03/21 12:31:25;;;;;;;9.20;5.63;;;9.60;99.90;;;;;;4840029;29;20745;-85
2024/03/21 12:33:56;;;;;;;9.10;5.18;;;9.50;99.90;;;;;;4847800;29;20194;-87
2024/03/21 12:36:22;;;;;;;7.82;5.07;;;9.50;99.90;;;;;;4828663;29;20192;-85
2024/03/21 12:38:48;;;;;;;10.88;5.60;;;9.50;99.90;;;;;;4857578;29;20200;-84
2024/03/21 12:41:14;;;;;;;11.30;6.10;;;9.50;99.90;;;;;;4828276;29;20174;-85
2024/03/21 12:43:40;;;;;;;7.43;5.22;;;9.50;99.90;;;;;;4828517;29;20612;-85